Time;durP1;ratioP1;P1;durP2;ratioP2;P2;SDS_P1;SDS_P2;PMS_P1;PMS_P2;Temp;Humidity;BMP_temperature;BMP_pressure;BME280_temperature;BME280_humidity;BME280_pressure;Samples;Min_cycle;Max_cycle;Signal;HPM_P1;HPM_P2
2021/11/21 02:39:50;;;;;;;18.80;11.27;;;;;;;5.29;85.18;99737.78;1087070;46;20037;-76
2021/11/21 12:31:24;;;;;;;5.38;3.28;;;;;;;4.97;75.92;99454.97;1091089;39;20188;-78
2021/11/21 12:32:30;;;;;;;5.47;2.95;;;;;;;5.24;75.48;99458.16;1087700;54;20811;-77
2021/11/21 12:33:32;;;;;;;4.32;2.40;;;;;;;5.40;75.03;99455.94;1088449;46;20038;-79
2021/11/21 12:34:43;;;;;;;4.53;2.67;;;;;;;5.53;75.08;99454.94;1089403;31;20682;-78
2021/11/21 12:35:53;;;;;;;4.97;2.58;;;;;;;5.61;74.66;99450.69;1089577;46;20106;-78
2021/11/21 12:37:14;;;;;;;4.50;2.20;;;;;;;5.63;74.43;99454.03;1089566;39;20618;-78
2021/11/21 12:38:35;;;;;;;5.22;2.63;;;;;;;5.53;74.64;99457.59;1087676;54;20030;-78
2021/11/21 12:39:38;;;;;;;4.72;2.60;;;;;;;5.42;75.08;99448.72;1088617;46;20029;-77
2021/11/21 12:40:46;;;;;;;4.60;2.58;;;;;;;5.52;75.20;99450.59;1087673;54;20781;-78
2021/11/21 12:42:03;;;;;;;5.10;3.17;;;;;;;5.63;74.25;99442.59;1087705;54;20102;-78
2021/11/21 12:43:10;;;;;;;6.13;3.10;;;;;;;5.47;74.56;99449.19;1092058;39;20591;-78
2021/11/21 12:44:23;;;;;;;5.55;3.28;;;;;;;5.38;74.56;99444.66;1087736;54;20034;-79
2021/11/21 12:45:32;;;;;;;5.25;3.08;;;;;;;5.40;75.08;99448.00;1087766;54;20784;-78
2021/11/21 12:46:36;;;;;;;6.47;3.03;;;;;;;5.46;75.05;99447.50;1087682;54;20026;-79
2021/11/21 12:47:42;;;;;;;5.65;2.67;;;;;;;5.51;75.03;99443.63;1087626;54;20030;-79
2021/11/21 12:48:47;;;;;;;5.13;3.17;;;;;;;5.65;74.44;99443.31;1087548;54;20082;-78
2021/11/21 12:49:51;;;;;;;5.72;3.30;;;;;;;5.65;74.45;99443.31;1087723;54;20785;-77
2021/11/21 12:50:57;;;;;;;5.10;3.17;;;;;;;5.74;74.47;99439.91;1092776;39;21210;-78
2021/11/21 12:52:06;;;;;;;6.03;3.03;;;;;;;5.60;74.18;99434.91;1087680;54;20042;-78
2021/11/21 12:53:13;;;;;;;6.57;3.83;;;;;;;5.58;74.41;99434.19;1087697;54;20031;-79
2021/11/21 12:54:25;;;;;;;7.93;4.22;;;;;;;5.60;73.76;99429.59;1087976;46;20039;-80
2021/11/21 12:55:30;;;;;;;6.25;4.32;;;;;;;5.60;74.26;99421.63;1087768;54;20054;-77
2021/11/21 12:56:32;;;;;;;7.03;3.45;;;;;;;5.56;74.14;99430.84;1087708;54;20050;-79
2021/11/21 12:57:55;;;;;;;5.00;3.13;;;;;;;5.72;73.36;99417.13;1088680;39;20267;-79
2021/11/21 12:58:56;;;;;;;4.50;2.78;;;;;;;5.56;74.24;99422.88;1088014;46;20034;-78
2021/11/21 13:00:01;;;;;;;5.25;3.17;;;;;;;5.66;74.13;99420.28;1087712;54;20042;-78
2021/11/21 13:02:14;;;;;;;4.80;2.83;;;;;;;5.77;73.37;99414.94;1087714;54;20015;-78
2021/11/21 13:03:20;;;;;;;4.90;2.70;;;;;;;5.81;73.57;99418.16;1088153;46;20034;-78
2021/11/21 13:04:22;;;;;;;5.35;2.92;;;;;;;5.80;73.74;99416.47;1087794;54;20271;-79
2021/11/21 13:05:27;;;;;;;5.13;2.80;;;;;;;5.96;73.11;99416.84;1089674;46;20107;-77
2021/11/21 13:06:31;;;;;;;4.85;2.85;;;;;;;6.03;72.86;99412.75;1087756;54;20045;-77
2021/11/21 13:07:35;;;;;;;5.38;3.15;;;;;;;5.97;72.48;99410.56;1087939;47;20041;-78
2021/11/21 13:08:41;;;;;;;5.55;3.20;;;;;;;5.98;72.73;99406.13;1087808;54;20031;-78
2021/11/21 13:09:54;;;;;;;5.38;3.05;;;;;;;6.03;72.60;99410.09;1087809;54;20070;-79
2021/11/21 13:11:00;;;;;;;6.57;2.90;;;;;;;5.70;72.44;99406.63;1087739;54;20094;-79
2021/11/21 13:12:02;;;;;;;6.00;2.97;;;;;;;5.65;72.84;99413.28;1087895;54;20034;-81
2021/11/21 13:13:08;;;;;;;6.25;3.22;;;;;;;5.77;72.96;99413.09;1089196;46;20066;-79
2021/11/21 13:14:09;;;;;;;5.85;3.30;;;;;;;5.96;72.67;99408.06;1088198;31;20827;-79
2021/11/21 13:15:17;;;;;;;5.20;3.30;;;;;;;6.12;72.15;99405.81;1090533;39;20607;-78
2021/11/21 13:16:23;;;;;;;5.20;2.83;;;;;;;6.12;71.96;99405.81;1087683;54;20061;-78
2021/11/21 13:17:28;;;;;;;5.30;3.33;;;;;;;5.98;72.17;99408.78;1087785;54;20023;-78
2021/11/21 13:18:36;;;;;;;5.60;3.72;;;;;;;5.93;72.13;99410.00;1087525;54;20064;-77
2021/11/21 13:19:37;;;;;;;5.32;2.90;;;;;;;5.95;72.23;99409.88;1087761;54;20034;-78
2021/11/21 13:20:44;;;;;;;5.07;3.28;;;;;;;5.99;72.32;99400.72;1087824;54;20090;-78
2021/11/21 13:21:45;;;;;;;4.68;2.65;;;;;;;5.97;72.17;99413.22;1087652;54;20064;-78
2021/11/21 13:23:02;;;;;;;5.60;3.05;;;;;;;6.04;71.53;99402.97;1087743;54;20031;-78
2021/11/21 13:24:09;;;;;;;6.00;3.40;;;;;;;5.91;72.08;99413.75;1087717;54;20686;-78
2021/11/21 13:25:10;;;;;;;5.10;2.97;;;;;;;5.97;72.28;99413.22;1087676;54;20038;-78
2021/11/21 13:26:17;;;;;;;5.07;3.00;;;;;;;5.91;72.08;99408.47;1087754;54;20030;-78
2021/11/21 13:27:18;;;;;;;5.55;2.83;;;;;;;5.93;71.98;99402.03;1087752;54;20042;-77
2021/11/21 13:28:31;;;;;;;5.35;3.13;;;;;;;5.90;72.03;99406.78;1087772;54;20133;-77
2021/11/21 13:29:35;;;;;;;4.88;2.90;;;;;;;5.87;72.24;99407.88;1087744;54;20764;-79
2021/11/21 13:30:37;;;;;;;5.57;2.90;;;;;;;5.99;71.83;99408.66;1087756;54;20052;-78
2021/11/21 13:31:44;;;;;;;4.43;2.47;;;;;;;6.16;71.62;99407.22;1087789;54;20030;-78
2021/11/21 13:32:49;;;;;;;5.15;2.75;;;;;;;6.24;71.02;99406.56;1087756;54;20031;-78
2021/11/21 13:33:59;;;;;;;5.47;3.22;;;;;;;6.26;70.60;99409.09;1087708;54;20086;-80
2021/11/21 13:35:14;;;;;;;5.47;2.60;;;;;;;6.36;70.84;99405.50;1087730;39;20262;-78
2021/11/21 13:36:22;;;;;;;8.20;4.80;;;;;;;6.38;70.61;99410.66;1087667;54;20034;-79
2021/11/21 13:37:26;;;;;;;7.88;3.65;;;;;;;6.34;70.24;99398.66;1087721;54;20034;-78
2021/11/21 13:38:32;;;;;;;6.30;3.42;;;;;;;6.38;70.50;99405.34;1087647;54;20058;-79
2021/11/21 13:39:37;;;;;;;5.55;2.80;;;;;;;6.46;70.52;99407.34;1087736;54;20069;-78
2021/11/21 13:40:39;;;;;;;5.60;3.05;;;;;;;6.49;70.11;99401.78;1087642;54;20757;-78
2021/11/21 13:41:45;;;;;;;5.43;2.72;;;;;;;6.52;70.33;99404.16;1087611;54;20026;-78
2021/11/21 13:43:02;;;;;;;5.68;2.65;;;;;;;6.51;69.60;99405.97;1087602;54;20387;-78
2021/11/21 13:44:09;;;;;;;4.93;2.40;;;;;;;6.62;69.95;99401.53;1087667;54;20034;-77
2021/11/21 13:45:10;;;;;;;4.40;2.47;;;;;;;6.65;70.03;99407.41;1087632;54;20045;-78
2021/11/21 13:46:18;;;;;;;5.60;2.42;;;;;;;6.63;69.74;99409.38;1087550;54;20759;-79
2021/11/21 13:47:23;;;;;;;4.72;2.47;;;;;;;6.66;69.86;99406.44;1087677;46;20080;-77
2021/11/21 13:48:35;;;;;;;4.88;2.35;;;;;;;6.68;69.58;99412.47;1087603;54;20030;-79
2021/11/21 13:49:43;;;;;;;4.40;2.47;;;;;;;6.71;69.47;99401.56;1087666;54;20034;-79
2021/11/21 13:50:46;;;;;;;4.18;2.55;;;;;;;6.69;69.73;99392.91;1087889;39;20637;-78
2021/11/21 13:52:01;;;;;;;3.95;2.15;;;;;;;6.69;68.83;99400.03;1087943;39;21151;-77
2021/11/21 13:53:02;;;;;;;4.95;2.78;;;;;;;6.61;69.02;99395.41;1087718;54;20035;-79
2021/11/21 13:54:06;;;;;;;4.97;2.72;;;;;;;6.59;69.38;99407.13;1087728;54;20034;-79
2021/11/21 13:55:10;;;;;;;4.90;2.50;;;;;;;6.61;69.32;99406.03;1087914;54;20053;-78
2021/11/21 13:56:18;;;;;;;4.75;2.50;;;;;;;6.61;69.51;99415.78;1087724;54;20386;-78
2021/11/21 13:57:24;;;;;;;4.38;2.40;;;;;;;6.62;69.42;99399.72;1087671;54;20050;-79
2021/11/21 13:58:26;;;;;;;4.10;2.42;;;;;;;6.62;69.29;99412.16;1087626;54;20066;-79
2021/11/21 13:59:40;;;;;;;6.10;2.72;;;;;;;6.63;69.13;99404.06;1087565;54;20030;-77
2021/11/21 14:00:41;;;;;;;4.75;2.70;;;;;;;6.64;69.59;99408.41;1087661;54;20023;-79
2021/11/21 14:01:49;;;;;;;4.75;2.80;;;;;;;6.63;69.17;99412.03;1087377;54;21437;-78
2021/11/21 14:02:56;;;;;;;4.57;2.33;;;;;;;6.62;69.17;99405.03;1087424;54;20702;-79
2021/11/21 14:04:07;;;;;;;4.13;2.22;;;;;;;6.69;68.98;99410.66;1087599;54;20797;-79
2021/11/21 14:05:12;;;;;;;;;;;;;;;6.44;69.48;99409.28;1087763;54;20103;-78
2021/11/21 14:06:16;;;;;;;4.60;2.40;;;;;;;6.52;69.95;99417.44;1087642;54;19945;-79
2021/11/21 14:07:20;;;;;;;5.65;2.95;;;;;;;6.60;69.84;99414.97;1087643;54;20090;-78
2021/11/21 14:08:38;;;;;;;8.60;7.75;;;;;;;6.59;69.60;99415.94;1087695;54;20034;-78
2021/11/21 14:09:57;;;;;;;5.88;4.60;;;;;;;6.55;69.72;99411.84;1087820;54;20034;-80
2021/11/21 14:11:06;;;;;;;5.63;3.63;;;;;;;6.53;69.97;99413.81;1088253;47;20070;-78
2021/11/21 14:12:11;;;;;;;5.50;3.65;;;;;;;6.55;69.73;99411.84;1088657;39;20816;-79
2021/11/21 14:13:17;;;;;;;5.50;3.42;;;;;;;6.57;70.17;99415.22;1087968;54;20033;-80
2021/11/21 14:14:22;;;;;;;5.18;3.25;;;;;;;6.63;69.98;99419.16;1088012;54;20095;-80
2021/11/21 14:15:27;;;;;;;4.82;3.10;;;;;;;6.63;70.21;99416.50;1087850;54;20094;-80
2021/11/21 14:16:31;;;;;;;5.40;3.40;;;;;;;6.59;70.17;99415.09;1088015;54;20094;-79
2021/11/21 14:17:37;;;;;;;7.45;3.88;;;;;;;6.64;70.04;99421.69;1087951;54;20065;-80
2021/11/21 14:18:43;;;;;;;5.90;3.40;;;;;;;6.68;70.17;99416.94;1088579;47;20034;-80
2021/11/21 14:19:49;;;;;;;5.75;3.17;;;;;;;6.70;69.92;99415.84;1087935;47;20038;-81
2021/11/21 14:20:52;;;;;;;6.57;3.10;;;;;;;6.69;69.99;99416.81;1087891;54;20046;-80
2021/11/21 14:22:10;;;;;;;4.75;2.85;;;;;;;6.69;69.91;99419.47;1087937;54;20057;-78
2021/11/21 14:23:13;;;;;;;5.35;3.10;;;;;;;6.65;70.13;99417.22;1087858;54;20042;-82
2021/11/21 14:24:17;;;;;;;5.32;3.13;;;;;;;6.65;70.17;99417.22;1087880;54;20038;-80
2021/11/21 14:25:28;;;;;;;6.10;3.13;;;;;;;6.70;70.11;99418.50;1087832;54;20039;-81
2021/11/21 14:26:35;;;;;;;4.88;2.92;;;;;;;6.76;69.90;99425.06;1087985;54;20031;-79
2021/11/21 14:27:37;;;;;;;6.35;3.13;;;;;;;6.76;70.26;99425.06;1092093;39;20642;-80
2021/11/21 14:28:46;;;;;;;5.38;2.95;;;;;;;6.76;70.26;99416.25;1087862;54;20037;-81
2021/11/21 14:29:52;;;;;;;5.72;3.38;;;;;;;6.75;69.98;99422.53;1087989;54;20058;-78
2021/11/21 14:30:59;;;;;;;6.30;3.60;;;;;;;6.80;70.18;99426.47;1089797;39;20637;-79
2021/11/21 14:32:05;;;;;;;6.82;3.13;;;;;;;6.77;70.32;99420.59;1088101;54;20034;-81
2021/11/21 14:33:12;;;;;;;5.68;3.25;;;;;;;6.70;70.35;99423.81;1088245;54;20026;-80
2021/11/21 14:34:32;;;;;;;6.25;3.85;;;;;;;6.63;70.29;99425.31;1088326;54;20035;-79
2021/11/21 14:35:41;;;;;;;7.70;3.75;;;;;;;6.57;70.37;99420.53;1088105;54;20034;-80
2021/11/21 14:36:45;;;;;;;6.95;4.10;;;;;;;6.51;70.76;99432.53;1088105;54;20026;-80
2021/11/21 14:37:52;;;;;;;6.28;4.15;;;;;;;6.51;70.83;99437.84;1088237;54;20031;-79
2021/11/21 14:39:13;;;;;;;6.78;3.78;;;;;;;6.50;70.89;99427.38;1088839;46;20038;-80
2021/11/21 14:40:18;;;;;;;6.78;3.70;;;;;;;6.51;70.98;99426.41;1087826;54;20041;-78
2021/11/21 14:41:24;;;;;;;5.97;3.30;;;;;;;6.50;70.97;99433.50;1087880;54;20050;-80
2021/11/21 14:42:30;;;;;;;5.72;3.78;;;;;;;6.51;70.87;99429.06;1089761;39;21026;-80
2021/11/21 14:43:36;;;;;;;6.18;3.58;;;;;;;6.53;71.01;99432.38;1087824;54;20040;-79
2021/11/21 14:44:42;;;;;;;6.13;3.65;;;;;;;6.58;70.82;99432.00;1087911;54;20015;-79
2021/11/21 14:45:44;;;;;;;6.68;4.22;;;;;;;6.59;71.20;99433.69;1087894;54;20046;-80
2021/11/21 14:46:48;;;;;;;6.60;4.10;;;;;;;6.60;70.98;99430.03;1087895;54;20025;-79
2021/11/21 14:47:53;;;;;;;7.13;3.97;;;;;;;6.57;71.05;99436.47;1087835;54;20038;-79
2021/11/21 14:48:57;;;;;;;8.38;4.05;;;;;;;6.62;71.17;99426.28;1087877;54;20034;-79
2021/11/21 14:50:01;;;;;;;6.68;3.72;;;;;;;6.64;71.20;99442.09;1087936;54;20852;-79
2021/11/21 14:51:10;;;;;;;6.25;3.90;;;;;;;6.60;71.24;99430.91;1087854;54;20050;-80
2021/11/21 14:52:17;;;;;;;6.70;3.63;;;;;;;6.63;71.00;99435.94;1087900;54;20030;-78
2021/11/21 14:53:20;;;;;;;6.28;3.55;;;;;;;6.63;71.22;99441.25;1088692;46;20050;-79
2021/11/21 14:54:34;;;;;;;6.78;3.78;;;;;;;6.59;71.33;99433.69;1088061;54;20034;-79
2021/11/21 14:55:44;;;;;;;5.93;3.45;;;;;;;6.61;71.61;99437.91;1087807;54;20030;-79
2021/11/21 14:56:57;;;;;;;5.78;3.38;;;;;;;6.65;71.36;99436.63;1087967;54;20026;-79
2021/11/21 14:58:08;;;;;;;7.85;4.10;;;;;;;6.63;71.61;99435.09;1087885;54;20030;-80
2021/11/21 14:59:12;;;;;;;6.82;3.88;;;;;;;6.69;71.25;99435.41;1087826;54;20085;-81
2021/11/21 15:00:21;;;;;;;7.78;3.85;;;;;;;6.69;71.35;99440.72;1087932;54;20070;-79
2021/11/21 15:01:28;;;;;;;5.22;3.22;;;;;;;6.80;71.37;99447.72;1087928;54;20035;-81
2021/11/21 15:02:34;;;;;;;7.38;3.70;;;;;;;6.77;71.46;99453.31;1087372;54;20045;-78
2021/11/21 15:03:43;;;;;;;7.93;3.80;;;;;;;6.82;71.33;99444.94;1087951;54;20018;-80
2021/11/21 15:04:47;;;;;;;7.25;3.83;;;;;;;6.84;71.17;99449.16;1097281;39;20336;-80
2021/11/21 15:05:49;;;;;;;6.05;3.50;;;;;;;6.78;71.39;99440.88;1088254;54;20030;-79
2021/11/21 15:06:59;;;;;;;6.35;4.03;;;;;;;6.77;71.47;99433.88;1088173;54;20034;-80
2021/11/21 15:08:03;;;;;;;7.00;3.58;;;;;;;6.83;71.27;99436.00;1088169;54;20042;-78
2021/11/21 15:09:15;;;;;;;7.22;3.90;;;;;;;6.79;71.00;99434.59;1089768;39;20199;-81
2021/11/21 15:10:20;;;;;;;6.53;3.95;;;;;;;6.85;71.42;99445.50;1088230;54;20041;-80
2021/11/21 15:11:31;;;;;;;6.63;4.30;;;;;;;6.85;71.25;99434.03;1088172;54;20038;-78
2021/11/21 15:12:33;;;;;;;7.70;4.32;;;;;;;6.80;71.23;99436.28;1088203;54;20026;-78
2021/11/21 15:13:37;;;;;;;6.10;3.60;;;;;;;6.82;71.54;99432.50;1088664;39;20610;-79
2021/11/21 15:14:43;;;;;;;7.72;4.30;;;;;;;6.73;71.78;99435.97;1088226;54;20030;-79
2021/11/21 15:15:45;;;;;;;6.72;3.70;;;;;;;6.74;71.99;99434.16;1088229;54;20030;-79
2021/11/21 15:16:50;;;;;;;7.20;4.30;;;;;;;6.59;72.26;99434.53;1088132;54;20078;-79
2021/11/21 15:17:52;;;;;;;7.95;4.97;;;;;;;6.53;72.63;99432.38;1088144;54;20035;-80
2021/11/21 15:18:57;;;;;;;7.15;4.50;;;;;;;6.48;72.98;99437.28;1088139;54;20050;-79
2021/11/21 15:20:01;;;;;;;8.10;4.63;;;;;;;6.49;72.85;99431.00;1088216;54;20041;-80
2021/11/21 15:21:09;;;;;;;8.80;5.05;;;;;;;6.51;72.90;99437.84;1090891;46;20030;-78
2021/11/21 15:22:16;;;;;;;7.28;4.45;;;;;;;6.55;72.88;99433.09;1088130;54;20030;-80
2021/11/21 15:23:18;;;;;;;6.40;4.20;;;;;;;6.65;72.71;99433.97;1088140;54;20030;-80
2021/11/21 15:24:24;;;;;;;6.63;4.40;;;;;;;6.70;72.48;99429.13;1088148;54;20033;-79
2021/11/21 15:25:33;;;;;;;7.18;4.43;;;;;;;6.67;72.48;99431.19;1090324;46;20034;-81
2021/11/21 15:26:37;;;;;;;7.97;4.68;;;;;;;6.67;72.39;99432.03;1090175;39;20263;-80
2021/11/21 15:27:48;;;;;;;7.68;4.43;;;;;;;6.58;72.65;99440.81;1088240;54;20034;-80
2021/11/21 15:28:58;;;;;;;8.15;5.25;;;;;;;6.47;73.19;99435.59;1088069;54;20023;-80
2021/11/21 15:30:08;;;;;;;7.70;4.97;;;;;;;6.46;73.28;99433.91;1088189;54;20039;-80
2021/11/21 15:31:14;;;;;;;9.85;5.18;;;;;;;6.38;73.35;99435.41;1088136;54;20045;-80
2021/11/21 15:32:16;;;;;;;8.43;5.15;;;;;;;6.29;73.73;99438.00;1088866;39;20291;-79
2021/11/21 15:33:24;;;;;;;10.18;5.22;;;;;;;6.11;74.50;99443.09;1088091;54;20057;-80
2021/11/21 15:34:29;;;;;;;9.27;5.45;;;;;;;6.15;74.81;99441.84;1088206;54;20031;-79
2021/11/21 15:35:32;;;;;;;8.90;5.40;;;;;;;6.15;74.68;99434.75;1088416;46;20043;-79
2021/11/21 15:36:36;;;;;;;10.15;5.97;;;;;;;6.06;75.08;99432.88;1089948;39;20665;-79
2021/11/21 15:37:44;;;;;;;9.23;5.82;;;;;;;6.09;75.05;99440.59;1088104;54;20037;-78
2021/11/21 15:38:49;;;;;;;9.10;6.28;;;;;;;6.05;75.46;99441.81;1088035;54;20042;-80
2021/11/21 15:39:52;;;;;;;9.30;5.55;;;;;;;6.01;75.37;99430.63;1088020;54;20037;-80
2021/11/21 15:40:58;;;;;;;11.07;6.07;;;;;;;5.97;75.51;99423.84;1088017;54;20120;-79
2021/11/21 15:42:03;;;;;;;10.02;6.10;;;;;;;6.07;75.54;99427.44;1088098;54;20034;-79
2021/11/21 15:43:05;;;;;;;9.80;5.78;;;;;;;6.27;74.89;99424.06;1088096;54;20034;-78
2021/11/21 15:44:09;;;;;;;7.97;5.30;;;;;;;6.35;74.88;99426.88;1088153;54;20042;-79
2021/11/21 15:45:14;;;;;;;9.65;5.80;;;;;;;6.43;74.26;99431.50;1088124;54;20034;-81
2021/11/21 15:46:25;;;;;;;10.50;5.85;;;;;;;6.22;74.53;99433.25;1088575;46;20029;-78
2021/11/21 15:47:26;;;;;;;9.60;5.97;;;;;;;6.39;74.48;99429.13;1088123;54;20034;-79
2021/11/21 15:48:32;;;;;;;9.77;5.63;;;;;;;6.46;74.07;99428.59;1088035;54;20050;-80
2021/11/21 15:49:33;;;;;;;8.85;5.85;;;;;;;6.47;73.93;99435.59;1088065;54;20058;-80
2021/11/21 15:50:45;;;;;;;9.95;6.32;;;;;;;6.33;74.40;99442.91;1088166;54;20037;-78
2021/11/21 15:51:46;;;;;;;9.07;5.88;;;;;;;6.40;74.12;99437.94;1088139;54;20026;-79
2021/11/21 15:52:54;;;;;;;8.98;6.10;;;;;;;6.48;74.02;99443.41;1088112;54;20030;-78
2021/11/21 15:53:59;;;;;;;8.88;6.00;;;;;;;6.42;74.30;99448.44;1088116;54;20042;-77
2021/11/21 15:55:01;;;;;;;9.68;5.93;;;;;;;6.40;74.20;99438.78;1088096;54;20049;-79
2021/11/21 15:56:06;;;;;;;10.60;6.38;;;;;;;6.25;74.69;99442.75;1088114;54;20082;-79
2021/11/21 15:57:11;;;;;;;9.73;6.10;;;;;;;6.29;74.66;99444.19;1088109;54;20030;-80
2021/11/21 15:58:15;;;;;;;10.43;6.07;;;;;;;6.43;74.39;99439.47;1088149;54;20038;-79
2021/11/21 15:59:24;;;;;;;8.73;5.57;;;;;;;6.31;74.53;99442.25;1087978;54;20035;-80
2021/11/21 16:00:29;;;;;;;12.10;7.15;;;;;;;6.18;75.01;99445.13;1088174;54;20103;-78
2021/11/21 16:01:33;;;;;;;10.32;6.93;;;;;;;6.21;75.13;99444.00;1088121;54;20086;-78
2021/11/21 16:02:34;;;;;;;9.65;6.68;;;;;;;6.13;75.27;99449.94;1095985;31;20829;-79
2021/11/21 16:03:39;;;;;;;10.57;6.97;;;;;;;6.08;75.53;99445.03;1087979;54;20035;-79
2021/11/21 16:04:44;;;;;;;12.50;7.10;;;;;;;6.13;75.57;99449.13;1088134;54;20034;-79
2021/11/21 16:05:50;;;;;;;10.48;6.50;;;;;;;6.26;75.12;99448.91;1088103;54;20030;-79
2021/11/21 16:06:56;;;;;;;9.13;6.32;;;;;;;6.28;74.69;99453.09;1088056;54;20800;-80
2021/11/21 16:08:06;;;;;;;9.30;6.53;;;;;;;6.33;74.86;99450.06;1088052;54;20046;-79
2021/11/21 16:09:10;;;;;;;9.55;6.13;;;;;;;6.28;74.80;99447.81;1087987;54;20045;-80
2021/11/21 16:10:15;;;;;;;9.10;5.90;;;;;;;6.31;74.97;99452.00;1088087;54;20046;-78
2021/11/21 16:11:19;;;;;;;8.88;6.22;;;;;;;6.28;75.06;99452.28;1088097;54;20041;-80
2021/11/21 16:12:21;;;;;;;10.15;6.40;;;;;;;6.26;74.90;99449.75;1088039;54;20792;-80
2021/11/21 16:13:25;;;;;;;10.95;6.65;;;;;;;6.24;74.91;99449.03;1088834;39;20626;-79
2021/11/21 16:14:28;;;;;;;14.15;7.85;;;;;;;6.23;74.94;99450.03;1088671;39;20249;-80
2021/11/21 16:15:32;;;;;;;10.88;7.03;;;;;;;6.27;74.98;99445.28;1088085;54;20030;-79
2021/11/21 16:16:40;;;;;;;10.60;6.85;;;;;;;6.17;75.46;99445.22;1089419;46;20041;-80
2021/11/21 16:17:42;;;;;;;8.65;6.38;;;;;;;6.27;75.18;99437.31;1088098;54;20062;-78
2021/11/21 16:18:48;;;;;;;9.90;7.25;;;;;;;6.17;75.43;99443.44;1087882;54;20034;-79
2021/11/21 16:19:49;;;;;;;9.90;7.18;;;;;;;6.06;75.88;99452.28;1088139;54;20065;-80
2021/11/21 16:21:00;;;;;;;10.05;6.85;;;;;;;5.97;76.07;99445.06;1087996;54;20034;-79
2021/11/21 16:22:03;;;;;;;11.90;7.38;;;;;;;5.96;76.26;99447.88;1089440;46;20030;-79
2021/11/21 16:23:19;;;;;;;10.75;7.07;;;;;;;6.03;76.02;99454.34;1090198;46;20026;-79
2021/11/21 16:24:23;;;;;;;10.27;6.88;;;;;;;6.20;75.48;99445.78;1087927;54;20033;-78
2021/11/21 16:25:27;;;;;;;8.40;5.53;;;;;;;6.33;75.05;99453.53;1089407;46;20045;-80
2021/11/21 16:26:30;;;;;;;9.15;5.90;;;;;;;6.40;75.03;99452.06;1088010;54;20062;-78
2021/11/21 16:27:34;;;;;;;9.35;6.22;;;;;;;6.31;75.10;99452.84;1088131;54;20041;-80
2021/11/21 16:28:39;;;;;;;10.65;7.25;;;;;;;6.23;75.53;99444.72;1088007;54;20034;-79
2021/11/21 16:29:41;;;;;;;10.32;6.75;;;;;;;6.13;75.76;99446.47;1089073;46;20042;-79
2021/11/21 16:30:46;;;;;;;12.60;8.10;;;;;;;6.04;76.14;99448.94;1088040;54;20745;-80
2021/11/21 16:31:48;;;;;;;10.50;7.18;;;;;;;6.01;76.33;99448.34;1088104;54;20058;-79
2021/11/21 16:32:53;;;;;;;12.60;8.30;;;;;;;5.99;76.56;99437.84;1093740;39;20704;-80
2021/11/21 16:33:55;;;;;;;12.60;7.82;;;;;;;5.97;76.79;99445.06;1088108;54;20019;-78
2021/11/21 16:35:02;;;;;;;10.07;6.72;;;;;;;6.13;76.39;99449.13;1088082;54;20726;-79
2021/11/21 16:36:04;;;;;;;13.52;6.85;;;;;;;6.17;76.21;99448.72;1088044;54;20057;-79
2021/11/21 16:37:15;;;;;;;11.30;7.20;;;;;;;6.15;76.00;99452.47;1090694;39;20650;-80
2021/11/21 16:38:21;;;;;;;10.82;7.43;;;;;;;6.15;76.24;99457.78;1091204;46;20042;-80
2021/11/21 16:39:23;;;;;;;11.07;7.47;;;;;;;6.06;76.33;99459.41;1087841;54;20053;-79
2021/11/21 16:40:28;;;;;;;11.73;8.05;;;;;;;6.08;76.31;99457.47;1088006;54;20086;-79
2021/11/21 16:41:33;;;;;;;12.95;7.70;;;;;;;5.97;76.51;99461.00;1089126;46;20836;-79
2021/11/21 16:42:37;;;;;;;10.77;7.28;;;;;;;6.03;76.42;99457.00;1088000;54;20041;-78
2021/11/21 16:43:38;;;;;;;11.68;7.30;;;;;;;6.04;76.38;99464.00;1087865;54;20058;-78
2021/11/21 16:44:43;;;;;;;10.32;7.25;;;;;;;6.03;76.58;99470.28;1087828;54;20807;-78
2021/11/21 16:45:48;;;;;;;10.38;7.50;;;;;;;5.91;77.01;99477.44;1087941;54;20094;-78
2021/11/21 16:46:49;;;;;;;11.75;7.85;;;;;;;5.90;77.14;99481.06;1087802;54;20030;-79
2021/11/21 16:47:53;;;;;;;12.32;8.60;;;;;;;5.90;77.14;99481.06;1087846;54;20128;-78
2021/11/21 16:48:55;;;;;;;10.85;7.18;;;;;;;5.94;76.99;99478.00;1087767;54;20045;-77
2021/11/21 16:49:59;;;;;;;10.48;7.38;;;;;;;5.98;76.81;99470.63;1087907;54;20107;-79
2021/11/21 16:51:00;;;;;;;10.45;7.53;;;;;;;6.01;76.93;99466.91;1087853;54;20042;-77
2021/11/21 16:52:08;;;;;;;11.95;7.22;;;;;;;6.12;76.51;99474.81;1087830;54;20086;-78
2021/11/21 16:53:13;;;;;;;12.75;7.63;;;;;;;6.11;76.29;99475.78;1087763;54;20096;-79
2021/11/21 16:54:19;;;;;;;11.80;8.10;;;;;;;6.06;76.52;99470.03;1088283;39;20594;-78
2021/11/21 16:55:23;;;;;;;11.15;7.70;;;;;;;6.07;76.76;99477.84;1087761;54;20041;-78
2021/11/21 16:56:26;;;;;;;11.73;8.30;;;;;;;6.03;76.78;99465.81;1087717;54;20046;-78
2021/11/21 16:57:30;;;;;;;10.85;7.35;;;;;;;6.08;76.67;99473.41;1087809;54;20397;-79
2021/11/21 16:58:32;;;;;;;11.55;7.80;;;;;;;6.14;76.49;99477.34;1087828;54;20046;-78
2021/11/21 16:59:36;;;;;;;10.45;7.22;;;;;;;6.19;76.21;99462.69;1087749;54;20065;-78
2021/11/21 17:00:40;;;;;;;11.48;7.38;;;;;;;6.21;76.20;99471.38;1087694;54;20414;-78
2021/11/21 17:01:42;;;;;;;12.18;7.50;;;;;;;6.14;76.42;99461.44;1087720;54;20042;-77
2021/11/21 17:02:47;;;;;;;10.93;7.30;;;;;;;6.12;76.31;99471.31;1087477;54;20045;-79
2021/11/21 17:03:48;;;;;;;13.05;7.70;;;;;;;6.06;76.41;99465.56;1087762;54;20038;-79
2021/11/21 17:04:53;;;;;;;11.93;8.07;;;;;;;6.12;76.28;99466.84;1087752;54;20030;-78
2021/11/21 17:05:59;;;;;;;13.02;8.05;;;;;;;6.07;76.67;99472.53;1087725;54;20880;-78
2021/11/21 17:07:00;;;;;;;11.88;7.97;;;;;;;6.08;76.82;99463.63;1087837;54;20808;-78
2021/11/21 17:08:09;;;;;;;14.95;8.63;;;;;;;6.07;76.62;99472.53;1088664;31;20843;-78
2021/11/21 17:09:11;;;;;;;10.40;7.40;;;;;;;6.03;76.94;99470.28;1087760;54;20035;-78
2021/11/21 17:10:17;;;;;;;11.95;7.30;;;;;;;6.01;76.90;99469.56;1087714;54;20026;-77
2021/11/21 17:11:19;;;;;;;14.55;8.60;;;;;;;6.04;76.59;99467.50;1087769;54;20062;-78
2021/11/21 17:12:26;;;;;;;10.25;7.72;;;;;;;6.12;76.45;99474.81;1087823;54;20031;-77
2021/11/21 17:13:27;;;;;;;9.82;7.22;;;;;;;6.14;76.50;99469.38;1087856;54;20082;-78
2021/11/21 17:14:32;;;;;;;14.40;8.63;;;;;;;6.07;76.84;99483.16;1087808;54;20031;-79
2021/11/21 17:15:36;;;;;;;13.25;8.10;;;;;;;5.98;76.92;99475.13;1087687;54;20046;-80
2021/11/21 17:16:39;;;;;;;12.43;8.63;;;;;;;5.88;77.20;99478.53;1087759;54;20034;-76
2021/11/21 17:17:44;;;;;;;12.27;8.48;;;;;;;5.94;77.14;99482.50;1088687;39;20760;-79
2021/11/21 17:18:45;;;;;;;13.45;8.18;;;;;;;5.87;77.41;99478.66;1087670;54;20040;-80
2021/11/21 17:19:51;;;;;;;13.57;9.05;;;;;;;5.82;77.46;99478.22;1087728;54;20030;-79
2021/11/21 17:20:52;;;;;;;11.63;8.30;;;;;;;5.82;77.69;99478.22;1087698;54;20032;-79
2021/11/21 17:21:56;;;;;;;13.30;8.35;;;;;;;5.75;77.90;99488.47;1087770;54;20034;-78
2021/11/21 17:22:59;;;;;;;11.68;8.35;;;;;;;5.78;77.68;99483.75;1087936;47;20057;-79
2021/11/21 17:24:03;;;;;;;13.38;7.78;;;;;;;5.80;77.79;99493.41;1088669;39;20760;-79
2021/11/21 17:25:11;;;;;;;13.25;9.40;;;;;;;5.74;78.02;99490.31;1087700;54;20018;-79
2021/11/21 17:26:18;;;;;;;12.18;8.07;;;;;;;5.75;78.09;99485.81;1087672;54;20729;-78
2021/11/21 17:27:22;;;;;;;11.90;8.80;;;;;;;5.76;77.83;99485.69;1088151;39;21123;-80
2021/11/21 17:28:26;;;;;;;11.20;7.75;;;;;;;5.87;77.75;99492.78;1087651;54;20046;-81
2021/11/21 17:29:30;;;;;;;13.02;8.43;;;;;;;5.87;77.60;99489.25;1087743;54;20065;-78
2021/11/21 17:30:34;;;;;;;11.75;8.20;;;;;;;5.75;77.80;99489.34;1087571;54;20046;-78
2021/11/21 17:31:38;;;;;;;12.65;8.55;;;;;;;5.70;78.09;99491.50;1087634;54;20058;-78
2021/11/21 17:32:45;;;;;;;12.00;8.00;;;;;;;5.69;78.13;99489.81;1087700;54;20799;-79
2021/11/21 17:33:49;;;;;;;11.52;8.07;;;;;;;5.69;78.24;99489.81;1087676;54;20034;-78
2021/11/21 17:34:55;;;;;;;11.57;8.35;;;;;;;5.78;77.80;99496.19;1087667;54;20064;-79
2021/11/21 17:36:00;;;;;;;12.10;8.10;;;;;;;5.83;77.72;99487.84;1087780;54;20041;-79
2021/11/21 17:37:04;;;;;;;10.45;8.40;;;;;;;5.83;77.80;99486.03;1087653;54;20034;-78
2021/11/21 17:38:08;;;;;;;10.50;7.53;;;;;;;5.94;77.44;99487.81;1091092;31;20768;-78
2021/11/21 17:39:12;;;;;;;11.48;8.45;;;;;;;5.87;77.54;99481.31;1087643;54;20034;-79
2021/11/21 17:40:18;;;;;;;13.73;8.40;;;;;;;5.85;77.86;99484.09;1087696;54;20038;-80
2021/11/21 17:41:22;;;;;;;12.27;7.78;;;;;;;5.88;77.55;99486.50;1087689;54;20023;-79
2021/11/21 17:42:26;;;;;;;10.85;7.70;;;;;;;5.91;77.44;99488.88;1087857;47;20038;-80
2021/11/21 17:43:27;;;;;;;14.85;8.85;;;;;;;5.89;77.68;99492.63;1087664;54;20058;-79